createdAt,value
2017-05-11T00:01:38.835Z,12.80
2017-05-11T00:04:07.310Z,12.90
2017-05-11T00:06:35.631Z,12.90
2017-05-11T00:11:33.260Z,12.80
2017-05-11T00:14:01.201Z,12.80
2017-05-11T00:16:29.514Z,12.70
2017-05-11T00:18:57.506Z,12.70
2017-05-11T00:21:25.831Z,12.70
2017-05-11T00:23:53.810Z,12.70
2017-05-11T00:26:22.192Z,12.60
2017-05-11T00:28:50.528Z,12.40
2017-05-11T00:31:18.886Z,12.50
2017-05-11T00:33:47.263Z,12.50
2017-05-11T00:36:16.316Z,12.60
2017-05-11T00:38:44.256Z,12.60
2017-05-11T00:41:12.634Z,12.50
2017-05-11T00:43:40.953Z,12.40
2017-05-11T00:46:09.281Z,12.40
2017-05-11T00:48:38.020Z,12.40
2017-05-11T00:51:06.327Z,12.30
2017-05-11T00:53:34.641Z,12.40
2017-05-11T00:56:03.147Z,12.40
2017-05-11T00:58:31.462Z,12.30
2017-05-11T01:00:59.395Z,12.30
2017-05-11T01:03:27.383Z,12.30
2017-05-11T01:05:55.343Z,12.30
2017-05-11T01:08:23.679Z,12.30
2017-05-11T01:10:51.702Z,12.10
2017-05-11T01:13:20.399Z,12.10
2017-05-11T01:15:48.713Z,12.20
2017-05-11T01:18:17.063Z,12.20
2017-05-11T01:23:14.648Z,12.10
2017-05-11T01:25:43.375Z,12.10
2017-05-11T01:28:11.688Z,12.10
2017-05-11T01:30:40.010Z,12.10
2017-05-11T01:35:36.923Z,12.00
2017-05-11T01:38:05.601Z,12.00
2017-05-11T01:40:34.334Z,11.90
2017-05-11T01:43:02.644Z,11.90
2017-05-11T01:48:00.274Z,11.90
2017-05-11T01:52:57.463Z,11.80
2017-05-11T01:55:26.183Z,11.70
2017-05-11T01:57:54.517Z,11.70
2017-05-11T02:00:22.455Z,11.70
2017-05-11T02:02:50.452Z,11.70
2017-05-11T02:05:18.394Z,11.60
2017-05-11T02:07:46.739Z,11.50
2017-05-11T02:10:15.092Z,11.50
2017-05-11T02:12:43.406Z,11.50
2017-05-11T02:15:11.347Z,11.40
2017-05-11T02:17:39.713Z,11.40
2017-05-11T02:20:08.032Z,11.40
2017-05-11T02:22:35.967Z,11.30
2017-05-11T02:25:04.310Z,11.20
2017-05-11T02:27:32.615Z,11.20
2017-05-11T02:30:00.916Z,11.10
2017-05-11T02:32:29.866Z,11.10
2017-05-11T02:34:58.175Z,11.10
2017-05-11T02:37:26.483Z,11.00
2017-05-11T02:39:54.843Z,11.00
2017-05-11T02:44:52.433Z,11.00
2017-05-11T02:47:21.167Z,11.00
2017-05-11T02:49:49.499Z,10.90
2017-05-11T02:54:47.107Z,10.80
2017-05-11T02:57:15.774Z,10.80
2017-05-11T02:59:43.706Z,10.80
2017-05-11T03:02:12.050Z,10.90
2017-05-11T03:04:40.734Z,10.80
2017-05-11T03:07:09.064Z,10.80
2017-05-11T03:09:37.071Z,10.80
2017-05-11T03:17:03.547Z,10.60
2017-05-11T03:19:32.223Z,10.60
2017-05-11T03:22:00.527Z,10.60
2017-05-11T03:26:58.131Z,10.50
2017-05-11T03:29:26.431Z,10.50
2017-05-11T03:36:53.351Z,10.40
2017-05-11T03:39:22.723Z,10.40
2017-05-11T03:41:50.686Z,10.30
2017-05-11T03:44:18.619Z,10.30
2017-05-11T03:46:46.974Z,10.30
2017-05-11T03:49:14.908Z,10.30
2017-05-11T03:51:42.845Z,10.30
2017-05-11T03:54:11.867Z,10.20
2017-05-11T03:59:09.136Z,10.20
2017-05-11T04:04:06.403Z,10.20
2017-05-11T04:06:34.712Z,10.20
2017-05-11T04:09:03.071Z,10.20
2017-05-11T04:11:32.110Z,10.30
2017-05-11T04:14:00.410Z,10.20
2017-05-11T04:16:28.743Z,10.20
2017-05-11T04:18:57.039Z,10.20
2017-05-11T04:21:25.365Z,10.30
2017-05-11T04:23:53.368Z,10.20
2017-05-11T04:26:21.710Z,10.20
2017-05-11T04:28:50.779Z,10.20
2017-05-11T04:31:18.754Z,10.20
2017-05-11T04:33:46.707Z,10.20
2017-05-11T04:36:15.019Z,10.30
2017-05-11T04:38:42.991Z,10.20
2017-05-11T04:41:11.295Z,10.20
2017-05-11T04:43:39.975Z,10.20
2017-05-11T04:46:09.364Z,10.30
2017-05-11T04:48:37.676Z,10.30
2017-05-11T04:51:05.987Z,10.30
2017-05-11T04:53:34.334Z,10.40
2017-05-11T04:56:03.012Z,10.30
2017-05-11T04:58:31.315Z,10.40
2017-05-11T05:01:00.059Z,10.40
2017-05-11T05:03:29.118Z,10.50
2017-05-11T05:05:57.454Z,10.50
2017-05-11T05:08:26.567Z,10.60
2017-05-11T05:10:54.910Z,10.60
2017-05-11T05:16:18.728Z,10.70
2017-05-11T05:18:46.699Z,10.80
2017-05-11T05:21:15.064Z,10.80
2017-05-11T05:23:43.003Z,10.80
2017-05-11T05:26:11.332Z,10.90
2017-05-11T05:28:39.438Z,10.90
2017-05-11T05:33:36.622Z,11.00
2017-05-11T05:36:04.995Z,11.10
2017-05-11T05:41:02.562Z,11.20
2017-05-11T05:46:00.225Z,11.40
2017-05-11T05:48:28.184Z,11.50
2017-05-11T05:50:56.204Z,11.60
2017-05-11T05:58:22.817Z,11.80
2017-05-11T06:00:51.152Z,11.90
2017-05-11T06:03:19.484Z,11.90
2017-05-11T06:10:45.303Z,12.20
2017-05-11T06:13:13.296Z,12.30
2017-05-11T06:15:41.969Z,12.30
2017-05-11T06:18:10.294Z,12.40
2017-05-11T06:20:38.283Z,12.40
2017-05-11T06:23:06.594Z,12.50
2017-05-11T06:25:34.536Z,12.60
2017-05-11T06:33:00.309Z,12.90
2017-05-11T06:35:28.664Z,13.10
2017-05-11T06:40:26.628Z,13.50
2017-05-11T06:42:54.631Z,13.60
2017-05-11T06:45:22.602Z,13.70
2017-05-11T06:47:51.652Z,13.90
2017-05-11T06:50:19.994Z,14.10
2017-05-11T06:52:48.299Z,14.40
2017-05-11T06:55:17.339Z,14.60
2017-05-11T06:57:46.007Z,14.90
2017-05-11T07:00:13.926Z,15.20
2017-05-11T07:10:08.944Z,16.10
2017-05-11T07:12:37.308Z,16.30
2017-05-11T07:15:05.239Z,16.60
2017-05-11T07:20:40.206Z,17.00
2017-05-11T07:23:08.513Z,17.20
2017-05-11T07:25:37.463Z,17.40
2017-05-11T07:28:05.749Z,17.60
2017-05-11T07:30:34.783Z,17.70
2017-05-11T07:33:03.867Z,17.90
2017-05-11T07:35:32.163Z,18.00
2017-05-11T07:38:00.457Z,18.20
2017-05-11T07:40:29.176Z,18.50
2017-05-11T07:45:26.010Z,18.90
2017-05-11T07:47:54.376Z,19.00
2017-05-11T07:50:22.687Z,19.30
2017-05-11T07:52:50.995Z,19.30
2017-05-11T07:55:18.982Z,19.40
2017-05-11T07:57:47.283Z,19.80
2017-05-11T08:00:15.942Z,19.80
2017-05-11T08:02:44.287Z,20.00
2017-05-11T08:05:12.956Z,19.40
2017-05-11T08:10:10.645Z,19.40
2017-05-11T08:12:38.580Z,19.10
2017-05-11T08:20:05.444Z,19.20
2017-05-11T08:22:33.367Z,19.40
2017-05-11T08:25:02.720Z,19.40
2017-05-11T08:30:00.263Z,19.70
2017-05-11T08:32:28.595Z,19.70
2017-05-11T08:34:56.518Z,19.60
2017-05-11T08:39:53.805Z,19.80
2017-05-11T08:42:22.128Z,20.00
2017-05-11T08:44:50.075Z,20.10
2017-05-11T08:47:19.571Z,20.10
2017-05-11T08:49:48.244Z,20.10
2017-05-11T08:52:17.279Z,20.20
2017-05-11T08:54:45.627Z,20.30
2017-05-11T08:57:13.923Z,19.80
2017-05-11T09:02:11.200Z,19.90
2017-05-11T09:04:39.508Z,20.20
2017-05-11T09:07:07.807Z,20.20
2017-05-11T09:12:05.387Z,20.80
2017-05-11T09:14:33.306Z,21.20
2017-05-11T09:19:30.902Z,21.40
2017-05-11T09:21:59.941Z,21.60
2017-05-11T09:24:27.935Z,21.60
2017-05-11T09:29:25.127Z,21.60
2017-05-11T09:31:54.228Z,21.50
2017-05-11T09:34:22.174Z,20.90
2017-05-11T09:36:50.475Z,20.90
2017-05-11T09:39:18.834Z,21.10
2017-05-11T09:41:47.503Z,21.40
2017-05-11T09:44:15.798Z,21.40
2017-05-11T09:46:44.139Z,21.30
2017-05-11T09:54:10.279Z,21.80
2017-05-11T09:56:38.203Z,21.30
2017-05-11T09:59:06.499Z,20.90
2017-05-11T10:01:35.842Z,20.60
2017-05-11T10:04:03.764Z,20.90
2017-05-11T10:06:31.691Z,21.20
2017-05-11T10:09:00.779Z,21.30
2017-05-11T10:21:25.419Z,21.60
2017-05-11T10:23:53.784Z,21.80
2017-05-11T10:28:51.355Z,21.70
2017-05-11T10:33:49.089Z,21.70
2017-05-11T10:38:46.322Z,21.60
2017-05-11T10:41:14.618Z,21.60
2017-05-11T10:43:43.278Z,21.50
2017-05-11T10:46:12.246Z,21.30
2017-05-11T10:51:09.814Z,21.90
2017-05-11T10:53:38.160Z,22.20
2017-05-11T10:56:06.079Z,22.10
2017-05-11T10:58:34.009Z,22.50
2017-05-11T11:01:02.745Z,22.70
2017-05-11T11:03:30.671Z,23.10
2017-05-11T11:05:58.974Z,23.30
2017-05-11T11:08:26.943Z,23.40
2017-05-11T11:10:55.246Z,23.10
2017-05-11T11:13:23.558Z,22.70
2017-05-11T11:15:51.918Z,22.90
2017-05-11T11:18:19.865Z,23.20
2017-05-11T11:20:48.175Z,22.90
2017-05-11T11:23:16.527Z,22.80
2017-05-11T11:25:45.198Z,22.40
2017-05-11T11:28:13.495Z,22.80
2017-05-11T11:30:41.471Z,22.90
2017-05-11T11:33:10.528Z,22.90
2017-05-11T11:38:08.539Z,23.00
2017-05-11T11:40:36.838Z,23.10
2017-05-11T11:43:05.131Z,23.20
2017-05-11T11:50:30.858Z,23.40
2017-05-11T11:52:59.277Z,23.70
2017-05-11T11:55:27.573Z,23.60
2017-05-11T11:57:55.513Z,23.20
2017-05-11T12:02:53.168Z,23.40
2017-05-11T12:05:21.488Z,23.60
2017-05-11T12:07:50.292Z,23.40
2017-05-11T12:10:18.602Z,23.50
2017-05-11T12:15:15.558Z,23.60
2017-05-11T12:17:44.223Z,23.80
2017-05-11T12:20:12.885Z,24.10
2017-05-11T12:22:41.271Z,24.30
2017-05-11T12:25:09.963Z,24.00
2017-05-11T12:27:39.023Z,24.30
2017-05-11T12:30:07.375Z,24.50
2017-05-11T12:32:35.667Z,23.70
2017-05-11T12:37:33.487Z,24.10
2017-05-11T12:40:01.408Z,24.30
2017-05-11T12:42:29.706Z,23.10
2017-05-11T12:44:58.051Z,23.70
2017-05-11T12:47:26.357Z,23.80
2017-05-11T12:52:23.256Z,23.80
2017-05-11T12:54:51.195Z,24.20
2017-05-11T12:57:19.490Z,24.50
2017-05-11T12:59:47.462Z,24.60
2017-05-11T13:02:16.499Z,24.80
2017-05-11T13:04:44.799Z,24.50
2017-05-11T13:07:13.466Z,24.80
2017-05-11T13:09:42.134Z,24.80
2017-05-11T13:12:11.179Z,24.90
2017-05-11T13:14:39.543Z,25.00
2017-05-11T13:19:37.115Z,25.30
2017-05-11T13:22:06.523Z,25.60
2017-05-11T13:24:35.559Z,25.80
2017-05-11T13:27:03.860Z,25.90
2017-05-11T13:29:32.955Z,26.00
2017-05-11T13:32:00.879Z,25.90
2017-05-11T13:34:29.174Z,25.40
2017-05-11T13:36:57.583Z,25.30
2017-05-11T13:39:26.251Z,25.50
2017-05-11T13:41:54.554Z,25.50
2017-05-11T13:44:23.644Z,25.50
2017-05-11T13:46:51.599Z,25.50
2017-05-11T13:49:19.921Z,25.40
2017-05-11T13:51:48.279Z,25.20
2017-05-11T13:54:16.571Z,25.10
2017-05-11T14:01:42.287Z,25.10
2017-05-11T14:04:11.322Z,25.20
2017-05-11T14:06:39.680Z,25.30
2017-05-11T14:09:07.997Z,25.50
2017-05-11T14:11:36.666Z,25.40
2017-05-11T14:14:05.023Z,25.40
2017-05-11T14:16:32.942Z,24.90
2017-05-11T14:19:01.239Z,24.70
2017-05-11T14:21:29.215Z,24.10
2017-05-11T14:23:57.145Z,24.20
2017-05-11T14:26:26.184Z,24.40
2017-05-11T14:28:54.538Z,24.40
2017-05-11T14:31:22.853Z,24.50
2017-05-11T14:36:20.331Z,24.50
2017-05-11T14:38:48.631Z,24.40
2017-05-11T14:41:16.924Z,24.30
2017-05-11T14:43:44.894Z,24.20
2017-05-11T14:46:13.197Z,24.20
2017-05-11T14:48:41.521Z,24.30
2017-05-11T14:51:09.903Z,24.10
2017-05-11T14:53:38.603Z,24.10
2017-05-11T14:56:06.899Z,24.10
2017-05-11T14:58:37.651Z,24.30
2017-05-11T15:01:05.962Z,24.10
2017-05-11T15:03:34.259Z,24.10
2017-05-11T15:06:03.923Z,23.70
2017-05-11T15:13:30.087Z,23.90
2017-05-11T15:15:58.016Z,23.90
2017-05-11T15:18:26.311Z,23.90
2017-05-11T15:20:55.041Z,23.90
2017-05-11T15:23:23.418Z,23.80
2017-05-11T15:28:20.357Z,23.80
2017-05-11T15:30:48.292Z,23.60
2017-05-11T15:33:16.579Z,23.70
2017-05-11T15:35:44.550Z,23.60
2017-05-11T15:38:12.860Z,23.60
2017-05-11T15:40:40.802Z,23.60
2017-05-11T15:43:08.895Z,23.60
2017-05-11T15:45:36.845Z,23.60
2017-05-11T15:48:05.154Z,23.70
2017-05-11T15:50:33.138Z,23.70
2017-05-11T15:53:02.175Z,23.80
2017-05-11T15:55:30.475Z,23.80
2017-05-11T15:57:58.829Z,23.90
2017-05-11T16:05:24.594Z,23.90
2017-05-11T16:10:22.228Z,23.80
2017-05-11T16:12:50.220Z,23.80
2017-05-11T16:15:18.519Z,23.70
2017-05-11T16:17:46.478Z,23.70
2017-05-11T16:20:14.841Z,23.80
2017-05-11T16:22:42.759Z,23.90
2017-05-11T16:25:10.702Z,23.80
2017-05-11T16:27:39.234Z,23.80
2017-05-11T16:30:07.579Z,23.60
2017-05-11T16:32:35.910Z,23.60
2017-05-11T16:37:33.607Z,23.60
2017-05-11T16:40:01.530Z,23.70
2017-05-11T16:42:29.494Z,23.60
2017-05-11T16:44:58.526Z,23.60
2017-05-11T16:47:26.855Z,23.50
2017-05-11T16:49:54.847Z,23.40
2017-05-11T16:54:56.796Z,23.30
2017-05-11T16:59:54.356Z,22.90
2017-05-11T17:02:23.260Z,23.00
2017-05-11T17:04:52.503Z,22.90
2017-05-11T17:07:21.214Z,23.00
2017-05-11T17:09:49.597Z,23.00
2017-05-11T17:12:17.907Z,22.90
2017-05-11T17:14:45.839Z,22.90
2017-05-11T17:17:14.187Z,22.90
2017-05-11T17:19:42.483Z,22.70
2017-05-11T17:24:39.737Z,22.80
2017-05-11T17:27:08.427Z,22.70
2017-05-11T17:29:36.363Z,22.60
2017-05-11T17:32:05.447Z,22.60
2017-05-11T17:34:33.379Z,22.60
2017-05-11T17:37:01.308Z,22.60
2017-05-11T17:39:30.051Z,22.20
2017-05-11T17:41:58.352Z,22.00
2017-05-11T17:44:26.647Z,21.90
2017-05-11T17:46:54.647Z,21.70
2017-05-11T17:49:23.345Z,21.70
2017-05-11T17:51:51.700Z,21.60
2017-05-11T17:54:19.709Z,21.40
2017-05-11T17:56:48.018Z,21.10
2017-05-11T17:59:16.319Z,20.80
2017-05-11T18:01:45.042Z,20.70
2017-05-11T18:04:13.707Z,20.80
2017-05-11T18:06:42.010Z,20.60
2017-05-11T18:09:10.368Z,20.60
2017-05-11T18:11:38.304Z,20.40
2017-05-11T18:14:06.603Z,20.40
2017-05-11T18:16:34.951Z,20.30
2017-05-11T18:19:03.990Z,20.20
2017-05-11T18:21:31.918Z,20.20
2017-05-11T18:24:00.279Z,20.10
2017-05-11T18:26:28.211Z,20.10
2017-05-11T18:28:57.280Z,20.00
2017-05-11T18:31:26.712Z,20.00
2017-05-11T18:33:54.659Z,19.90
2017-05-11T18:36:22.606Z,19.90
2017-05-11T18:38:50.984Z,19.90
2017-05-11T18:41:19.319Z,19.90
2017-05-11T18:43:47.598Z,19.80
2017-05-11T18:46:16.059Z,19.80
2017-05-11T18:48:44.495Z,19.80
2017-05-11T18:51:12.419Z,19.70
2017-05-11T18:53:41.786Z,19.50
2017-05-11T18:56:09.716Z,19.60
2017-05-11T18:58:37.639Z,19.50
2017-05-11T19:01:06.863Z,19.50
2017-05-11T19:03:35.175Z,19.50
2017-05-11T19:08:32.400Z,19.40
2017-05-11T19:11:01.067Z,18.90
2017-05-11T19:13:29.362Z,19.10
2017-05-11T19:15:58.455Z,19.20
2017-05-11T19:18:26.754Z,19.00
2017-05-11T19:20:55.065Z,18.80
2017-05-11T19:23:24.146Z,18.90
2017-05-11T19:28:21.740Z,18.80
2017-05-11T19:30:49.728Z,18.80
2017-05-11T19:35:47.291Z,18.90
2017-05-11T19:40:45.351Z,18.90
2017-05-11T19:53:10.095Z,18.60
2017-05-11T19:55:38.795Z,18.60
2017-05-11T19:58:07.102Z,18.70
2017-05-11T20:03:04.950Z,18.70
2017-05-11T20:05:32.878Z,18.60
2017-05-11T20:08:01.552Z,18.70
2017-05-11T20:10:30.199Z,18.60
2017-05-11T20:15:27.023Z,18.60
2017-05-11T20:17:55.453Z,18.50
2017-05-11T20:25:21.635Z,18.30
2017-05-11T20:27:49.611Z,18.30
2017-05-11T20:30:17.939Z,18.40
2017-05-11T20:32:45.940Z,18.40
2017-05-11T20:35:14.234Z,18.40
2017-05-11T20:37:42.911Z,18.40
2017-05-11T20:40:11.280Z,18.40
2017-05-11T20:42:39.595Z,18.40
2017-05-11T20:47:36.859Z,18.50
2017-05-11T20:50:05.181Z,18.50
2017-05-11T20:52:33.496Z,18.50
2017-05-11T20:55:02.626Z,18.60
2017-05-11T20:57:30.926Z,18.60
2017-05-11T20:59:59.311Z,18.60
2017-05-11T21:02:28.418Z,18.50
2017-05-11T21:04:56.735Z,18.60
2017-05-11T21:07:25.443Z,18.50
2017-05-11T21:09:54.540Z,18.40
2017-05-11T21:12:23.594Z,18.40
2017-05-11T21:14:52.659Z,18.30
2017-05-11T21:17:21.025Z,18.30
2017-05-11T21:22:18.255Z,18.30
2017-05-11T21:24:46.603Z,18.30
2017-05-11T21:27:15.267Z,18.40
2017-05-11T21:29:43.567Z,18.30
2017-05-11T21:32:11.611Z,18.30
2017-05-11T21:34:39.936Z,18.30
2017-05-11T21:37:08.255Z,18.40
2017-05-11T21:39:36.995Z,18.40
2017-05-11T21:42:05.311Z,18.40
2017-05-11T21:44:33.254Z,18.50
2017-05-11T21:47:01.283Z,18.50
2017-05-11T21:49:29.253Z,18.60
2017-05-11T21:51:57.616Z,18.50
2017-05-11T21:54:26.329Z,18.60
2017-05-11T21:56:54.696Z,18.60
2017-05-11T21:59:23.060Z,18.60
2017-05-11T22:01:52.218Z,18.60
2017-05-11T22:04:20.788Z,18.60
2017-05-11T22:06:49.135Z,18.70
2017-05-11T22:09:17.587Z,18.60
2017-05-11T22:14:16.008Z,18.60
2017-05-11T22:19:13.655Z,18.70
2017-05-11T22:21:41.947Z,18.70
2017-05-11T22:24:10.311Z,18.70
2017-05-11T22:26:38.251Z,18.70
2017-05-11T22:29:06.559Z,18.70
2017-05-11T22:31:35.614Z,18.70
2017-05-11T22:34:03.907Z,18.70
2017-05-11T22:36:32.215Z,18.70
2017-05-11T22:39:01.062Z,18.70
2017-05-11T22:43:58.619Z,18.70
2017-05-11T22:46:26.971Z,18.70
2017-05-11T22:48:55.287Z,18.70
2017-05-11T22:53:52.907Z,18.70
2017-05-11T22:56:21.583Z,18.60
2017-05-11T23:01:18.520Z,18.70
2017-05-11T23:03:46.816Z,18.60
2017-05-11T23:06:16.468Z,18.50
2017-05-11T23:08:44.899Z,18.50
2017-05-11T23:11:12.827Z,18.60
2017-05-11T23:13:41.858Z,18.60
2017-05-11T23:16:10.199Z,18.50
2017-05-11T23:18:39.254Z,18.50
2017-05-11T23:21:07.560Z,18.40
2017-05-11T23:23:36.571Z,18.10
2017-05-11T23:26:05.183Z,18.20
2017-05-11T23:31:02.393Z,18.30
2017-05-11T23:35:59.949Z,18.10
2017-05-11T23:38:28.303Z,18.20
2017-05-11T23:40:56.227Z,18.20
2017-05-11T23:43:24.539Z,18.10
2017-05-11T23:45:52.552Z,18.20
2017-05-11T23:48:20.496Z,18.30
2017-05-11T23:50:48.795Z,18.20
2017-05-11T23:53:17.150Z,17.90
2017-05-11T23:55:45.455Z,17.90
2017-05-11T23:58:13.751Z,17.90
